createdAt,value
2017-06-23T00:00:36.621Z,0
2017-06-23T00:01:17.502Z,0
2017-06-23T00:01:58.397Z,0
2017-06-23T00:02:39.289Z,0
2017-06-23T00:03:20.169Z,0
2017-06-23T00:04:01.053Z,0
2017-06-23T00:04:41.964Z,0
2017-06-23T00:05:22.855Z,0
2017-06-23T00:06:03.758Z,0
2017-06-23T00:06:44.644Z,0
2017-06-23T00:07:25.511Z,0
2017-06-23T00:08:06.459Z,0
2017-06-23T00:08:47.328Z,0
2017-06-23T00:09:28.206Z,0
2017-06-23T00:10:09.128Z,0
2017-06-23T00:10:50.009Z,0
2017-06-23T00:11:30.899Z,0
2017-06-23T00:12:11.793Z,0
2017-06-23T00:12:52.685Z,0
2017-06-23T00:13:33.574Z,0
2017-06-23T00:14:14.468Z,0
2017-06-23T00:14:55.349Z,0
2017-06-23T00:15:36.236Z,0
2017-06-23T00:16:17.136Z,0
2017-06-23T00:16:58.025Z,0
2017-06-23T00:17:38.906Z,0
2017-06-23T00:18:19.834Z,0
2017-06-23T00:19:00.762Z,0
2017-06-23T00:19:41.664Z,0
2017-06-23T00:20:22.558Z,0
2017-06-23T00:21:03.454Z,0
2017-06-23T00:21:44.343Z,0
2017-06-23T00:22:25.262Z,0
2017-06-23T00:23:06.154Z,0
2017-06-23T00:23:47.013Z,0
2017-06-23T00:24:27.921Z,0
2017-06-23T00:25:08.817Z,0
2017-06-23T00:25:49.705Z,0
2017-06-23T00:26:30.573Z,0
2017-06-23T00:27:11.484Z,0
2017-06-23T00:27:52.366Z,0
2017-06-23T00:28:33.256Z,0
2017-06-23T00:29:14.161Z,0
2017-06-23T00:29:55.050Z,0
2017-06-23T00:30:35.943Z,0
2017-06-23T00:31:16.837Z,0
2017-06-23T00:31:57.725Z,0
2017-06-23T00:32:38.615Z,0
2017-06-23T00:33:19.505Z,0
2017-06-23T00:34:00.392Z,0
2017-06-23T00:34:41.281Z,0
2017-06-23T00:35:22.177Z,0
2017-06-23T00:36:03.073Z,0
2017-06-23T00:36:43.936Z,0
2017-06-23T00:37:24.834Z,0
2017-06-23T00:38:05.723Z,0
2017-06-23T00:38:46.610Z,0
2017-06-23T00:39:27.522Z,0
2017-06-23T00:41:06.893Z,0
2017-06-23T00:41:47.761Z,0
2017-06-23T00:42:28.662Z,0
2017-06-23T00:43:09.550Z,0
2017-06-23T00:43:50.429Z,0
2017-06-23T00:44:31.317Z,0
2017-06-23T00:45:12.234Z,0
2017-06-23T00:45:53.099Z,0
2017-06-23T00:46:33.999Z,0
2017-06-23T00:47:14.897Z,0
2017-06-23T00:47:55.786Z,0
2017-06-23T00:48:36.665Z,0
2017-06-23T00:49:17.577Z,0
2017-06-23T00:49:58.466Z,0
2017-06-23T00:50:39.362Z,0
2017-06-23T00:51:20.252Z,0
2017-06-23T00:52:01.138Z,0
2017-06-23T00:52:42.038Z,0
2017-06-23T00:53:22.919Z,0
2017-06-23T00:54:03.811Z,0
2017-06-23T00:54:44.705Z,0
2017-06-23T00:55:25.607Z,0
2017-06-23T00:56:06.492Z,0
2017-06-23T00:56:47.378Z,0
2017-06-23T00:57:28.262Z,0
2017-06-23T00:58:09.145Z,0
2017-06-23T00:58:50.041Z,0
2017-06-23T00:59:30.935Z,0
2017-06-23T01:00:11.825Z,0
2017-06-23T01:00:52.722Z,0
2017-06-23T01:01:33.632Z,0
2017-06-23T01:02:14.516Z,0
2017-06-23T01:02:55.402Z,0
2017-06-23T01:03:36.287Z,0
2017-06-23T01:04:17.177Z,0
2017-06-23T01:04:58.068Z,0
2017-06-23T01:05:38.962Z,0
2017-06-23T01:06:19.848Z,0
2017-06-23T01:07:00.735Z,0
2017-06-23T01:07:41.647Z,0
2017-06-23T01:08:22.528Z,0
2017-06-23T01:09:03.420Z,0
2017-06-23T01:09:44.323Z,0
2017-06-23T01:10:25.209Z,0
2017-06-23T01:11:06.094Z,0
2017-06-23T01:11:46.979Z,0
2017-06-23T01:12:27.873Z,0
2017-06-23T01:13:08.759Z,0
2017-06-23T01:13:49.664Z,0
2017-06-23T01:14:30.557Z,0
2017-06-23T01:15:11.445Z,0
2017-06-23T01:15:52.351Z,0
2017-06-23T01:16:33.248Z,0
2017-06-23T01:17:14.131Z,0
2017-06-23T01:17:55.030Z,0
2017-06-23T01:18:35.923Z,0
2017-06-23T01:19:16.823Z,0
2017-06-23T01:19:57.725Z,0
2017-06-23T01:20:38.604Z,0
2017-06-23T01:21:19.487Z,0
2017-06-23T01:22:00.378Z,0
2017-06-23T01:22:41.266Z,0
2017-06-23T01:23:22.155Z,0
2017-06-23T01:24:03.047Z,0
2017-06-23T01:24:43.931Z,0
2017-06-23T01:25:24.823Z,0
2017-06-23T01:26:05.712Z,0
2017-06-23T01:26:46.611Z,0
2017-06-23T01:27:27.486Z,0
2017-06-23T01:28:08.383Z,0
2017-06-23T01:28:49.276Z,0
2017-06-23T01:29:30.157Z,0
2017-06-23T01:30:11.068Z,0
2017-06-23T01:30:51.956Z,0
2017-06-23T01:31:32.836Z,0
2017-06-23T01:32:13.729Z,0
2017-06-23T01:32:54.604Z,0
2017-06-23T01:33:35.490Z,0
2017-06-23T01:34:16.367Z,0
2017-06-23T01:34:57.278Z,0
2017-06-23T01:35:38.171Z,0
2017-06-23T01:36:19.043Z,0
2017-06-23T01:36:59.946Z,0
2017-06-23T01:37:40.838Z,0
2017-06-23T01:38:21.715Z,0
2017-06-23T01:39:02.606Z,0
2017-06-23T01:39:43.519Z,0
2017-06-23T01:40:24.387Z,0
2017-06-23T01:41:05.275Z,0
2017-06-23T01:41:46.172Z,0
2017-06-23T01:42:27.056Z,0
2017-06-23T01:43:07.935Z,0
2017-06-23T01:43:48.812Z,0
2017-06-23T01:44:29.696Z,0
2017-06-23T01:45:10.570Z,0
2017-06-23T01:45:51.463Z,0
2017-06-23T01:46:32.351Z,0
2017-06-23T01:47:13.255Z,0
2017-06-23T01:47:54.139Z,0
2017-06-23T01:48:35.037Z,0
2017-06-23T01:49:15.935Z,0
2017-06-23T01:49:56.822Z,0
2017-06-23T01:50:37.717Z,0
2017-06-23T01:51:18.606Z,0
2017-06-23T01:51:59.494Z,0
2017-06-23T01:52:40.384Z,0
2017-06-23T01:53:21.271Z,0
2017-06-23T01:54:02.158Z,0
2017-06-23T01:54:43.052Z,0
2017-06-23T01:55:23.943Z,0
2017-06-23T01:56:04.819Z,0
2017-06-23T01:56:45.697Z,0
2017-06-23T01:57:26.574Z,0
2017-06-23T01:58:07.462Z,0
2017-06-23T01:58:48.358Z,0
2017-06-23T01:59:29.248Z,0
2017-06-23T02:00:10.151Z,0
2017-06-23T02:00:51.029Z,0
2017-06-23T02:01:31.914Z,0
2017-06-23T02:02:12.807Z,0
2017-06-23T02:02:53.691Z,0
2017-06-23T02:03:34.582Z,0
2017-06-23T02:04:15.469Z,4
2017-06-23T02:04:56.361Z,0
2017-06-23T02:05:37.255Z,4
2017-06-23T02:06:18.145Z,4
2017-06-23T02:06:59.034Z,4
2017-06-23T02:07:39.924Z,4
2017-06-23T02:08:20.801Z,4
2017-06-23T02:09:01.682Z,4
2017-06-23T02:09:42.576Z,4
2017-06-23T02:10:23.469Z,4
2017-06-23T02:11:04.392Z,0
2017-06-23T02:11:45.264Z,4
2017-06-23T02:12:26.145Z,4
2017-06-23T02:13:07.034Z,4
2017-06-23T02:13:47.926Z,8
2017-06-23T02:14:28.811Z,4
2017-06-23T02:15:09.695Z,4
2017-06-23T02:15:50.601Z,8
2017-06-23T02:16:31.486Z,8
2017-06-23T02:17:12.376Z,8
2017-06-23T02:17:53.264Z,8
2017-06-23T02:18:34.155Z,8
2017-06-23T02:19:15.042Z,8
2017-06-23T02:19:55.947Z,8
2017-06-23T02:20:36.844Z,8
2017-06-23T02:21:17.726Z,8
2017-06-23T02:21:58.631Z,12
2017-06-23T02:22:39.514Z,8
2017-06-23T02:23:20.398Z,12
2017-06-23T02:24:01.288Z,12
2017-06-23T02:24:42.179Z,16
2017-06-23T02:25:23.054Z,16
2017-06-23T02:26:03.947Z,16
2017-06-23T02:26:44.840Z,20
2017-06-23T02:27:25.733Z,20
2017-06-23T02:28:06.614Z,20
2017-06-23T02:28:47.510Z,24
2017-06-23T02:29:28.395Z,24
2017-06-23T02:30:09.265Z,24
2017-06-23T02:30:50.164Z,20
2017-06-23T02:31:31.068Z,24
2017-06-23T02:32:11.939Z,24
2017-06-23T02:32:52.836Z,28
2017-06-23T02:33:33.732Z,28
2017-06-23T02:34:14.622Z,32
2017-06-23T02:34:55.513Z,32
2017-06-23T02:35:36.422Z,32
2017-06-23T02:36:17.299Z,28
2017-06-23T02:36:58.195Z,24
2017-06-23T02:37:39.079Z,20
2017-06-23T02:38:19.988Z,16
2017-06-23T02:39:00.851Z,16
2017-06-23T02:39:41.748Z,12
2017-06-23T02:40:22.637Z,16
2017-06-23T02:41:03.539Z,16
2017-06-23T02:41:44.444Z,12
2017-06-23T02:42:25.351Z,16
2017-06-23T02:43:06.236Z,16
2017-06-23T02:43:47.119Z,20
2017-06-23T02:44:27.993Z,20
2017-06-23T02:45:08.896Z,16
2017-06-23T02:45:49.787Z,16
2017-06-23T02:46:30.674Z,12
2017-06-23T02:47:11.572Z,12
2017-06-23T02:47:52.460Z,8
2017-06-23T02:48:33.350Z,16
2017-06-23T02:49:14.237Z,16
2017-06-23T02:49:55.134Z,20
2017-06-23T02:50:36.036Z,16
2017-06-23T02:51:16.906Z,12
2017-06-23T02:51:57.802Z,12
2017-06-23T02:52:38.693Z,8
2017-06-23T02:53:19.576Z,8
2017-06-23T02:54:00.473Z,12
2017-06-23T02:54:41.356Z,8
2017-06-23T02:55:22.234Z,8
2017-06-23T02:56:03.123Z,8
2017-06-23T02:56:44.008Z,12
2017-06-23T02:57:24.895Z,8
2017-06-23T02:58:05.770Z,12
2017-06-23T02:58:46.702Z,8
2017-06-23T02:59:27.577Z,16
2017-06-23T03:00:08.456Z,16
2017-06-23T03:00:49.348Z,16
2017-06-23T03:01:30.252Z,20
2017-06-23T03:02:11.125Z,32
2017-06-23T03:02:52.002Z,32
2017-06-23T03:03:32.895Z,32
2017-06-23T03:04:13.780Z,48
2017-06-23T03:04:54.689Z,72
2017-06-23T03:05:35.569Z,92
2017-06-23T03:06:16.458Z,112
2017-06-23T03:06:57.344Z,124
2017-06-23T03:07:38.244Z,148
2017-06-23T03:08:19.132Z,172
2017-06-23T03:09:00.026Z,160
2017-06-23T03:09:40.918Z,172
2017-06-23T03:10:21.846Z,180
2017-06-23T03:11:02.728Z,156
2017-06-23T03:11:43.620Z,116
2017-06-23T03:12:24.507Z,88
2017-06-23T03:13:05.420Z,96
2017-06-23T03:13:46.316Z,140
2017-06-23T03:14:27.203Z,148
2017-06-23T03:15:08.100Z,168
2017-06-23T03:15:48.979Z,196
2017-06-23T03:17:47.745Z,212
2017-06-23T03:18:28.643Z,228
2017-06-23T03:19:09.533Z,240
2017-06-23T03:19:50.424Z,244
2017-06-23T03:20:31.320Z,260
2017-06-23T03:21:12.233Z,268
2017-06-23T03:21:53.117Z,336
2017-06-23T03:22:34.035Z,400
2017-06-23T03:23:14.925Z,432
2017-06-23T03:23:55.817Z,416
2017-06-23T03:24:36.717Z,396
2017-06-23T03:25:17.605Z,392
2017-06-23T03:25:58.496Z,384
2017-06-23T03:26:39.379Z,368
2017-06-23T03:27:20.272Z,364
2017-06-23T03:28:01.164Z,432
2017-06-23T03:28:42.041Z,424
2017-06-23T03:29:22.922Z,336
2017-06-23T03:30:03.812Z,472
2017-06-23T03:30:44.694Z,516
2017-06-23T03:31:25.576Z,508
2017-06-23T03:32:06.473Z,272
2017-06-23T03:32:47.359Z,244
2017-06-23T03:33:28.254Z,284
2017-06-23T03:34:09.137Z,236
2017-06-23T03:34:50.028Z,428
2017-06-23T03:35:30.935Z,456
2017-06-23T03:36:11.831Z,308
2017-06-23T03:36:52.720Z,280
2017-06-23T03:37:33.597Z,308
2017-06-23T03:38:14.494Z,420
2017-06-23T03:38:55.393Z,420
2017-06-23T03:39:36.272Z,340
2017-06-23T03:40:17.161Z,528
2017-06-23T03:40:58.055Z,556
2017-06-23T03:41:38.951Z,504
2017-06-23T03:42:19.835Z,712
2017-06-23T03:43:00.723Z,884
2017-06-23T03:43:41.605Z,1008
2017-06-23T03:44:22.484Z,960
2017-06-23T03:45:03.370Z,924
2017-06-23T03:45:44.266Z,908
2017-06-23T03:46:25.152Z,1192
2017-06-23T03:47:06.043Z,1088
2017-06-23T03:47:46.935Z,1300
2017-06-23T03:48:27.822Z,1416
2017-06-23T03:49:08.719Z,1204
2017-06-23T03:49:49.613Z,1248
2017-06-23T03:50:30.491Z,1152
2017-06-23T03:51:11.384Z,1300
2017-06-23T03:51:52.268Z,1084
2017-06-23T03:52:33.148Z,1140
2017-06-23T03:54:31.905Z,1276
2017-06-23T03:55:12.816Z,944
2017-06-23T03:55:53.697Z,1260
2017-06-23T03:56:34.581Z,1296
2017-06-23T03:57:15.467Z,1012
2017-06-23T03:57:56.352Z,1436
2017-06-23T03:58:37.246Z,1444
2017-06-23T03:59:18.139Z,1352
2017-06-23T03:59:59.057Z,1936
2017-06-23T04:00:39.949Z,1896
2017-06-23T04:01:20.839Z,1940
2017-06-23T04:02:01.740Z,1852
2017-06-23T04:02:42.627Z,1948
2017-06-23T04:03:23.521Z,2200
2017-06-23T04:04:04.407Z,2360
2017-06-23T04:04:45.293Z,2400
2017-06-23T04:05:26.179Z,2380
2017-06-23T04:06:07.075Z,2296
2017-06-23T04:06:47.963Z,2260
2017-06-23T04:07:28.849Z,2400
2017-06-23T04:08:09.748Z,2152
2017-06-23T04:08:50.661Z,2336
2017-06-23T04:09:32.389Z,2452
2017-06-23T04:10:13.277Z,2512
2017-06-23T04:10:54.170Z,2508
2017-06-23T04:11:35.080Z,2432
2017-06-23T04:12:15.950Z,2428
2017-06-23T04:12:56.838Z,2512
2017-06-23T04:13:37.738Z,2484
2017-06-23T04:14:18.623Z,2348
2017-06-23T04:14:59.518Z,2288
2017-06-23T04:15:40.404Z,2440
2017-06-23T04:16:21.300Z,2584
2017-06-23T04:17:02.183Z,2516
2017-06-23T04:17:43.077Z,2652
2017-06-23T04:18:23.968Z,2620
2017-06-23T04:19:04.872Z,2892
2017-06-23T04:19:45.757Z,3112
2017-06-23T04:20:26.648Z,2620
2017-06-23T04:21:07.524Z,2244
2017-06-23T04:21:48.455Z,1876
2017-06-23T04:22:29.342Z,1500
2017-06-23T04:23:10.234Z,1716
2017-06-23T04:23:51.158Z,2076
2017-06-23T04:24:31.998Z,2372
2017-06-23T04:25:12.888Z,2712
2017-06-23T04:25:53.792Z,2784
2017-06-23T04:26:34.689Z,2684
2017-06-23T04:27:15.565Z,2520
2017-06-23T04:27:56.456Z,3120
2017-06-23T04:28:37.342Z,3332
2017-06-23T04:29:18.233Z,2464
2017-06-23T04:29:59.125Z,2200
2017-06-23T04:30:40.013Z,2248
2017-06-23T04:31:20.911Z,2396
2017-06-23T04:32:01.813Z,2764
2017-06-23T04:32:42.714Z,2512
2017-06-23T04:33:23.602Z,2296
2017-06-23T04:34:04.475Z,1936
2017-06-23T04:34:45.347Z,2160
2017-06-23T04:35:26.235Z,1688
2017-06-23T04:36:07.118Z,1768
2017-06-23T04:36:48.020Z,2560
2017-06-23T04:37:28.914Z,3228
2017-06-23T04:39:22.538Z,4732
2017-06-23T04:40:03.434Z,5092
2017-06-23T04:40:44.325Z,4516
2017-06-23T04:41:25.205Z,4984
2017-06-23T04:42:06.103Z,5692
2017-06-23T04:42:47.008Z,6268
2017-06-23T04:43:27.905Z,5864
2017-06-23T04:44:08.793Z,5024
2017-06-23T04:44:49.692Z,4516
2017-06-23T04:45:30.605Z,3572
2017-06-23T04:46:11.496Z,3056
2017-06-23T04:46:52.401Z,2520
2017-06-23T04:47:33.292Z,2536
2017-06-23T04:48:14.176Z,2332
2017-06-23T04:48:55.076Z,2584
2017-06-23T04:49:35.959Z,2296
2017-06-23T04:50:16.845Z,1744
2017-06-23T04:50:57.753Z,1144
2017-06-23T04:51:38.638Z,1348
2017-06-23T04:52:19.516Z,1616
2017-06-23T04:53:00.411Z,1444
2017-06-23T04:53:41.306Z,1284
2017-06-23T04:54:22.191Z,1156
2017-06-23T04:55:03.080Z,1112
2017-06-23T04:55:43.975Z,1056
2017-06-23T04:56:24.849Z,1096
2017-06-23T04:57:05.733Z,1492
2017-06-23T04:57:46.632Z,1024
2017-06-23T04:58:27.528Z,1160
2017-06-23T04:59:08.418Z,1240
2017-06-23T04:59:49.307Z,1044
2017-06-23T05:00:30.185Z,1344
2017-06-23T05:01:11.082Z,1380
2017-06-23T05:01:52.041Z,1348
2017-06-23T05:02:32.946Z,1600
2017-06-23T05:03:13.854Z,1356
2017-06-23T05:03:54.722Z,1460
2017-06-23T05:04:35.722Z,1804
2017-06-23T05:05:16.641Z,1724
2017-06-23T05:05:57.548Z,1708
2017-06-23T05:06:38.442Z,1544
2017-06-23T05:07:19.326Z,1644
2017-06-23T05:08:00.214Z,1520
2017-06-23T05:08:41.139Z,1436
2017-06-23T05:09:22.017Z,1384
2017-06-23T05:10:02.908Z,1292
2017-06-23T05:10:43.795Z,1004
2017-06-23T05:11:24.671Z,888
2017-06-23T05:12:05.584Z,1020
2017-06-23T05:12:46.524Z,1248
2017-06-23T05:13:27.400Z,1324
2017-06-23T05:14:08.312Z,1208
2017-06-23T05:14:49.205Z,888
2017-06-23T05:15:30.085Z,960
2017-06-23T05:16:10.996Z,832
2017-06-23T05:16:51.996Z,740
2017-06-23T05:17:32.876Z,804
2017-06-23T05:18:13.761Z,1052
2017-06-23T05:18:54.686Z,924
2017-06-23T05:19:35.546Z,1024
2017-06-23T05:20:16.453Z,1372
2017-06-23T05:20:57.330Z,1084
2017-06-23T05:21:38.231Z,1504
2017-06-23T05:22:19.110Z,1588
2017-06-23T05:23:00.004Z,1108
2017-06-23T05:23:40.912Z,1464
2017-06-23T05:24:23.358Z,1524
2017-06-23T05:25:04.248Z,1544
2017-06-23T05:25:45.131Z,1464
2017-06-23T05:26:26.014Z,1256
2017-06-23T05:27:06.899Z,1240
2017-06-23T05:27:47.785Z,1308
2017-06-23T05:28:28.672Z,1484
2017-06-23T05:29:09.570Z,1420
2017-06-23T05:29:50.472Z,904
2017-06-23T05:30:31.359Z,736
2017-06-23T05:31:12.262Z,700
2017-06-23T05:31:55.099Z,724
2017-06-23T05:32:35.991Z,1108
2017-06-23T05:33:16.895Z,1016
2017-06-23T05:33:57.781Z,1236
2017-06-23T05:34:38.714Z,1180
2017-06-23T05:35:19.628Z,1548
2017-06-23T05:36:00.510Z,1456
2017-06-23T05:36:41.444Z,1204
2017-06-23T05:37:22.341Z,988
2017-06-23T05:38:03.221Z,868
2017-06-23T05:38:44.111Z,880
2017-06-23T05:39:25.004Z,700
2017-06-23T05:40:05.888Z,672
2017-06-23T05:40:46.773Z,628
2017-06-23T05:41:27.656Z,764
2017-06-23T05:42:08.549Z,736
2017-06-23T05:42:49.432Z,592
2017-06-23T05:43:30.330Z,592
2017-06-23T05:44:11.245Z,640
2017-06-23T05:44:52.102Z,916
2017-06-23T05:45:32.986Z,708
2017-06-23T05:46:13.873Z,784
2017-06-23T05:46:54.759Z,720
2017-06-23T05:47:35.655Z,864
2017-06-23T05:48:16.581Z,664
2017-06-23T05:48:57.452Z,592
2017-06-23T05:49:38.344Z,560
2017-06-23T05:50:19.239Z,604
2017-06-23T05:51:00.116Z,448
2017-06-23T05:51:41.001Z,796
2017-06-23T05:52:21.894Z,948
2017-06-23T05:53:02.788Z,756
2017-06-23T05:53:43.669Z,824
2017-06-23T05:54:24.591Z,908
2017-06-23T05:55:05.457Z,780
2017-06-23T05:55:46.343Z,660
2017-06-23T05:56:27.259Z,420
2017-06-23T05:57:08.128Z,628
2017-06-23T05:57:49.020Z,472
2017-06-23T05:58:29.928Z,416
2017-06-23T05:59:10.810Z,456
2017-06-23T05:59:51.773Z,544
2017-06-23T06:00:32.633Z,636
2017-06-23T06:01:13.521Z,768
2017-06-23T06:01:54.417Z,616
2017-06-23T06:02:35.364Z,544
2017-06-23T06:03:16.254Z,780
2017-06-23T06:03:57.137Z,644
2017-06-23T06:04:38.034Z,516
2017-06-23T06:05:18.951Z,804
2017-06-23T06:05:59.827Z,1760
2017-06-23T06:06:40.719Z,1432
2017-06-23T06:07:21.620Z,1448
2017-06-23T06:08:02.580Z,1768
2017-06-23T06:08:43.499Z,2020
2017-06-23T06:09:26.122Z,2500
2017-06-23T06:10:06.997Z,1592
2017-06-23T06:10:47.884Z,1992
2017-06-23T06:11:28.785Z,2160
2017-06-23T06:12:09.675Z,2636
2017-06-23T06:12:50.549Z,2432
2017-06-23T06:13:33.382Z,3056
2017-06-23T06:14:14.280Z,3144
2017-06-23T06:14:55.196Z,3572
2017-06-23T06:15:36.147Z,3156
2017-06-23T06:16:17.027Z,3152
2017-06-23T06:18:31.270Z,2488
2017-06-23T06:19:12.162Z,2592
2017-06-23T06:19:53.052Z,3124
2017-06-23T06:20:33.947Z,3044
2017-06-23T06:21:14.824Z,2440
2017-06-23T06:21:55.703Z,1964
2017-06-23T06:22:36.584Z,1700
2017-06-23T06:23:17.457Z,1636
2017-06-23T06:23:58.368Z,1640
2017-06-23T06:24:39.302Z,1648
2017-06-23T06:25:20.130Z,1748
2017-06-23T06:27:29.473Z,1588
2017-06-23T06:28:10.368Z,1748
2017-06-23T06:28:51.283Z,1840
2017-06-23T06:29:32.130Z,2056
2017-06-23T06:30:13.035Z,2084
2017-06-23T06:30:53.958Z,2264
2017-06-23T06:31:34.854Z,2624
2017-06-23T06:32:15.719Z,2524
2017-06-23T06:32:56.643Z,3020
2017-06-23T06:33:37.547Z,3004
2017-06-23T06:34:18.414Z,2960
2017-06-23T06:34:59.307Z,3164
2017-06-23T06:35:40.206Z,2920
2017-06-23T06:36:21.121Z,2780
2017-06-23T06:37:02.017Z,2720
2017-06-23T06:37:42.906Z,3140
2017-06-23T06:38:23.781Z,3168
2017-06-23T06:39:04.663Z,2716
2017-06-23T06:39:45.561Z,2804
2017-06-23T06:40:26.458Z,2368
2017-06-23T06:41:07.353Z,2904
2017-06-23T06:41:48.269Z,3224
2017-06-23T06:42:29.142Z,2556
2017-06-23T06:43:10.076Z,2128
2017-06-23T06:43:50.953Z,2712
2017-06-23T06:44:31.825Z,3116
2017-06-23T06:45:12.731Z,3164
2017-06-23T06:45:53.632Z,2984
2017-06-23T06:46:34.515Z,3404
2017-06-23T06:47:15.432Z,3200
2017-06-23T06:47:56.301Z,2900
2017-06-23T06:48:37.188Z,3044
2017-06-23T06:49:18.076Z,3144
2017-06-23T06:49:58.973Z,1912
2017-06-23T06:51:57.737Z,2152
2017-06-23T06:52:38.642Z,2508
2017-06-23T06:53:19.519Z,2032
2017-06-23T06:54:00.407Z,1960
2017-06-23T06:54:41.314Z,2316
2017-06-23T06:55:22.198Z,3348
2017-06-23T06:56:03.099Z,2504
2017-06-23T06:56:43.989Z,2104
2017-06-23T06:57:24.880Z,1828
2017-06-23T06:58:05.774Z,2040
2017-06-23T06:58:46.665Z,1564
2017-06-23T06:59:27.554Z,1240
2017-06-23T07:00:08.448Z,1124
2017-06-23T07:00:49.335Z,1128
2017-06-23T07:01:30.226Z,1376
2017-06-23T07:02:11.104Z,1312
2017-06-23T07:02:51.993Z,1240
2017-06-23T07:03:32.874Z,1332
2017-06-23T07:04:13.769Z,1616
2017-06-23T07:04:54.648Z,1796
2017-06-23T07:05:35.536Z,1760
2017-06-23T07:06:16.420Z,2044
2017-06-23T07:06:57.291Z,1820
2017-06-23T07:07:38.183Z,1964
2017-06-23T07:08:19.062Z,2140
2017-06-23T07:08:59.953Z,2012
2017-06-23T07:09:40.896Z,2128
2017-06-23T07:10:21.764Z,2016
2017-06-23T07:11:02.712Z,1908
2017-06-23T07:11:43.606Z,1808
2017-06-23T07:12:24.500Z,1520
2017-06-23T07:13:05.382Z,1492
2017-06-23T07:13:46.276Z,1652
2017-06-23T07:14:27.176Z,2804
2017-06-23T07:15:08.059Z,2248
2017-06-23T07:15:48.931Z,2336
2017-06-23T07:16:29.839Z,2576
2017-06-23T07:17:10.724Z,3316
2017-06-23T07:17:51.611Z,2704
2017-06-23T07:18:32.477Z,2284
2017-06-23T07:19:13.388Z,2388
2017-06-23T07:21:27.591Z,2980
2017-06-23T07:22:08.496Z,2916
2017-06-23T07:22:49.402Z,3844
2017-06-23T07:23:30.265Z,4032
2017-06-23T07:24:11.148Z,4276
2017-06-23T07:24:52.044Z,2944
2017-06-23T07:25:32.918Z,3344
2017-06-23T07:26:13.802Z,5000
2017-06-23T07:26:54.680Z,5204
2017-06-23T07:27:35.599Z,5268
2017-06-23T07:28:16.482Z,5104
2017-06-23T07:28:57.377Z,4376
2017-06-23T07:29:38.262Z,2904
2017-06-23T07:30:19.149Z,2404
2017-06-23T07:31:00.043Z,2956
2017-06-23T07:31:40.945Z,3240
2017-06-23T07:32:21.825Z,3156
2017-06-23T07:33:02.748Z,3148
2017-06-23T07:33:43.644Z,2308
2017-06-23T07:34:24.541Z,2368
2017-06-23T07:35:05.433Z,2800
2017-06-23T07:35:46.312Z,3288
2017-06-23T07:36:27.238Z,3304
2017-06-23T07:37:08.133Z,3452
2017-06-23T07:37:49.024Z,5280
2017-06-23T07:38:29.942Z,5060
2017-06-23T07:39:10.827Z,4904
2017-06-23T07:39:51.718Z,3848
2017-06-23T07:40:32.659Z,2784
2017-06-23T07:42:43.551Z,1568
2017-06-23T07:43:24.456Z,1128
2017-06-23T07:44:05.358Z,1364
2017-06-23T07:44:46.247Z,1248
2017-06-23T07:45:27.149Z,1328
2017-06-23T07:46:08.055Z,1616
2017-06-23T07:46:48.941Z,1792
2017-06-23T07:47:29.832Z,2744
2017-06-23T07:48:10.724Z,3796
2017-06-23T07:48:51.613Z,4752
2017-06-23T07:49:32.502Z,6628
2017-06-23T07:50:13.403Z,7444
2017-06-23T07:50:54.305Z,6740
2017-06-23T07:51:35.188Z,6892
2017-06-23T07:52:16.080Z,7392
2017-06-23T07:52:56.973Z,6948
2017-06-23T07:53:37.873Z,7588
2017-06-23T07:54:18.764Z,8232
2017-06-23T07:54:59.650Z,12780
2017-06-23T07:55:40.550Z,15020
2017-06-23T07:56:21.437Z,15484
2017-06-23T07:57:02.326Z,51200
2017-06-23T07:57:43.231Z,22432
2017-06-23T07:58:24.113Z,42176
2017-06-23T07:59:04.997Z,16768
2017-06-23T07:59:45.908Z,18368
2017-06-23T08:00:26.803Z,25120
2017-06-23T08:01:07.695Z,20032
2017-06-23T08:01:48.603Z,12868
2017-06-23T08:02:29.491Z,12876
2017-06-23T08:03:10.360Z,14324
2017-06-23T08:03:51.264Z,18656
2017-06-23T08:04:32.159Z,10792
2017-06-23T08:05:13.048Z,9076
2017-06-23T08:05:53.934Z,10644
2017-06-23T08:06:34.823Z,9724
2017-06-23T08:07:15.703Z,7952
2017-06-23T08:07:56.588Z,6092
2017-06-23T08:08:37.492Z,8824
2017-06-23T08:09:18.386Z,7480
2017-06-23T08:09:59.309Z,7552
2017-06-23T08:10:40.202Z,9200
2017-06-23T08:11:21.117Z,15120
2017-06-23T08:12:02.003Z,8716
2017-06-23T08:12:42.919Z,18240
2017-06-23T08:13:23.809Z,17632
2017-06-23T08:14:04.695Z,14260
2017-06-23T08:14:45.586Z,13812
2017-06-23T08:15:26.489Z,22656
2017-06-23T08:16:07.374Z,21152
2017-06-23T08:16:48.264Z,8680
2017-06-23T08:17:29.154Z,20640
2017-06-23T08:18:10.050Z,26976
2017-06-23T08:18:50.945Z,19200
2017-06-23T08:19:31.847Z,14540
2017-06-23T08:20:12.736Z,44608
2017-06-23T08:20:53.623Z,77856
2017-06-23T08:21:34.530Z,12544
2017-06-23T08:22:15.414Z,42560
2017-06-23T08:22:56.308Z,9008
2017-06-23T08:23:37.213Z,73568
2017-06-23T08:24:18.118Z,15172
2017-06-23T08:24:59.021Z,77664
2017-06-23T08:25:39.910Z,19968
2017-06-23T08:26:20.813Z,14792
2017-06-23T08:27:01.723Z,9044
2017-06-23T08:27:42.607Z,11572
2017-06-23T08:28:23.519Z,87360
2017-06-23T08:29:04.427Z,87040
2017-06-23T08:29:45.334Z,15968
2017-06-23T08:30:26.218Z,45568
2017-06-23T08:31:07.104Z,16960
2017-06-23T08:31:48.043Z,69664
2017-06-23T08:32:28.933Z,14012
2017-06-23T08:33:09.835Z,92544
2017-06-23T08:33:50.739Z,70080
2017-06-23T08:34:31.629Z,12332
2017-06-23T08:35:12.532Z,43968
2017-06-23T08:35:53.462Z,68256
2017-06-23T08:36:34.355Z,59904
2017-06-23T08:37:15.249Z,61248
2017-06-23T08:37:56.146Z,65280
2017-06-23T08:38:37.027Z,262140
2017-06-23T08:39:17.918Z,70816
2017-06-23T08:39:58.835Z,74016
2017-06-23T08:40:39.730Z,69792
2017-06-23T08:41:20.643Z,26304
2017-06-23T08:42:01.549Z,32896
2017-06-23T08:42:42.462Z,18752
2017-06-23T08:43:23.367Z,17056
2017-06-23T08:44:04.275Z,17792
2017-06-23T08:44:45.184Z,19264
2017-06-23T08:45:26.088Z,19424
2017-06-23T08:46:07.005Z,15008
2017-06-23T08:46:48.439Z,12568
2017-06-23T08:47:29.341Z,12228
2017-06-23T08:48:10.241Z,12416
2017-06-23T08:48:51.137Z,12124
2017-06-23T08:49:32.037Z,11972
2017-06-23T08:50:12.949Z,11928
2017-06-23T08:50:53.843Z,12964
2017-06-23T08:51:34.762Z,11960
2017-06-23T08:53:48.553Z,12108
2017-06-23T08:54:29.462Z,11488
2017-06-23T08:55:10.364Z,12656
2017-06-23T08:55:51.263Z,14124
2017-06-23T08:56:33.112Z,16672
2017-06-23T08:57:14.014Z,16800
2017-06-23T08:57:54.908Z,16960
2017-06-23T08:58:35.804Z,21120
2017-06-23T08:59:16.709Z,17760
2017-06-23T08:59:57.586Z,15000
2017-06-23T09:00:38.483Z,12780
2017-06-23T09:01:19.374Z,12436
2017-06-23T09:02:00.278Z,12080
2017-06-23T09:02:41.187Z,12692
2017-06-23T09:03:22.076Z,12148
2017-06-23T09:04:02.962Z,13108
2017-06-23T09:04:43.859Z,11988
2017-06-23T09:05:24.749Z,12264
2017-06-23T09:06:05.646Z,12180
2017-06-23T09:06:46.534Z,11388
2017-06-23T09:07:27.425Z,11716
2017-06-23T09:08:08.327Z,13956
2017-06-23T09:08:49.224Z,14656
2017-06-23T09:09:30.122Z,16832
2017-06-23T09:10:11.026Z,15480
2017-06-23T09:10:51.920Z,15288
2017-06-23T09:11:32.815Z,15372
2017-06-23T09:12:13.723Z,13944
2017-06-23T09:12:54.610Z,14156
2017-06-23T09:13:35.508Z,14644
2017-06-23T09:14:16.401Z,14616
2017-06-23T09:14:57.352Z,14032
2017-06-23T09:15:38.244Z,14648
2017-06-23T09:16:19.138Z,13360
2017-06-23T09:17:00.035Z,12312
2017-06-23T09:17:40.969Z,12116
2017-06-23T09:18:21.860Z,11708
2017-06-23T09:19:02.753Z,11576
2017-06-23T09:19:43.654Z,12348
2017-06-23T09:20:24.554Z,12304
2017-06-23T09:21:05.454Z,12240
2017-06-23T09:21:46.351Z,12816
2017-06-23T09:22:27.254Z,13260
2017-06-23T09:23:08.165Z,13620
2017-06-23T09:23:49.068Z,11972
2017-06-23T09:24:29.968Z,12084
2017-06-23T09:25:10.859Z,13036
2017-06-23T09:25:51.756Z,11708
2017-06-23T09:26:32.649Z,12720
2017-06-23T09:30:30.575Z,11464
2017-06-23T09:31:11.464Z,10656
2017-06-23T09:31:52.368Z,11748
2017-06-23T09:32:33.236Z,13452
2017-06-23T09:33:14.174Z,15452
2017-06-23T09:33:55.041Z,17056
2017-06-23T09:34:35.919Z,16672
2017-06-23T09:35:16.812Z,16608
2017-06-23T09:35:57.716Z,17120
2017-06-23T09:36:38.596Z,16576
2017-06-23T09:37:19.487Z,17056
2017-06-23T09:38:00.387Z,14712